Chem Antares — V7GU2 — position and weather

sailwx.info

Track history (hours):
 
Tides and Currents Weather Stations Pressure Air Temp Water Temp Dewpoint Dewpoint Depression Visibility Wind Speed Wind Dir Waves Ship Positions

Chem Antares

Last reported at 2017-Nov-07 05:39 UTC. Time now 2017-Dec-17 10:16 UTC.
Position N 25°31' W 080°05'.
Warning: this ship's position is 40 days out of date.

Length 144 m; draft 8.1 m.

Type: Tanker. MMSI: 538002174.

Date/timePositionNaut miles runAvg speedWind from/ knotsBaromVisibWave heightAir tempDewpointWater temp
2017-Nov-07 05:39N 25°31' W 080°05'3 5.0
2017-Nov-07 04:58N 25°34' W 080°05'3 5.6
2017-Nov-07 04:30N 25°37' W 080°04'3 5.6
2017-Nov-07 04:00N 25°40' W 080°04'3 6.0
2017-Nov-07 03:30N 25°43' W 080°04'3 5.7
2017-Nov-07 03:00N 25°45' W 080°04'4 6.9
2017-Nov-07 02:30N 25°49' W 080°04'4 7.1
2017-Nov-07 01:59N 25°52' W 080°05'4 7.6
2017-Nov-07 01:27N 25°57' W 080°05'4 7.9
2017-Nov-07 00:59N 26°00' W 080°05'4 7.6
2017-Nov-07 00:30N 26°04' W 080°05'4 7.3
2017-Nov-06 23:58N 26°08' W 080°04'4 6.9
2017-Nov-06 23:25N 26°12' W 080°04'4 7.9
2017-Nov-06 22:51N 26°16' W 080°03'  
2017-Oct-31 22:21N 31°51' W 080°52'2 5.6
2017-Oct-31 22:00N 31°53' W 080°54'3 5.1
2017-Oct-31 21:30N 31°55' W 080°55'3 5.0
2017-Oct-31 20:52N 31°56' W 080°59'1 2.2
2017-Oct-31 20:26N 31°57' W 080°59'0 0.0
2017-Oct-31 19:57N 31°57' W 080°59'0 0.0
2017-Oct-31 19:27N 31°57' W 080°59'0 0.0
2017-Oct-31 18:56N 31°57' W 080°59'0 0.0
2017-Oct-31 18:26N 31°57' W 080°59'1 2.0
2017-Oct-31 17:59N 31°57' W 081°00'3 5.4
2017-Oct-31 17:30N 31°60' W 081°00'2 3.1
2017-Oct-31 17:00N 31°59' W 081°02'1 2.8
2017-Oct-31 16:30N 31°59' W 081°03'0 0.0
2017-Oct-31 16:00N 31°59' W 081°03'0 0.0
2017-Oct-31 15:30N 31°59' W 081°03'0 0.0
2017-Oct-31 15:00N 31°59' W 081°03'0 0.0
2017-Oct-30 22:09N 31°59' W 081°03'0 0.0
2017-Oct-30 21:57N 31°59' W 081°03'0 0.1
2017-Oct-30 21:30N 31°59' W 081°03'  
Track history (hours):
 
Tides and Currents Weather Stations Pressure Air Temp Water Temp Dewpoint Dewpoint Depression Visibility Wind Speed Wind Dir Waves Ship Positions

Chem Antares

Last reported at 2017-Nov-07 05:39 UTC. Time now 2017-Dec-17 10:16 UTC.
Position N 25°31' W 080°05'.
Warning: this ship's position is 40 days out of date.

Length 144 m; draft 8.1 m.

Type: Tanker. MMSI: 538002174.

Date/timePositionNaut miles runAvg speedWind from/ knotsBaromVisibWave heightAir tempDewpointWater temp
2017-Nov-07 05:39N 25°31' W 080°05'3 5.0
2017-Nov-07 04:58N 25°34' W 080°05'3 5.6
2017-Nov-07 04:30N 25°37' W 080°04'3 5.6
2017-Nov-07 04:00N 25°40' W 080°04'3 6.0
2017-Nov-07 03:30N 25°43' W 080°04'3 5.7
2017-Nov-07 03:00N 25°45' W 080°04'4 6.9
2017-Nov-07 02:30N 25°49' W 080°04'4 7.1
2017-Nov-07 01:59N 25°52' W 080°05'4 7.6
2017-Nov-07 01:27N 25°57' W 080°05'4 7.9
2017-Nov-07 00:59N 26°00' W 080°05'4 7.6
2017-Nov-07 00:30N 26°04' W 080°05'4 7.3
2017-Nov-06 23:58N 26°08' W 080°04'4 6.9
2017-Nov-06 23:25N 26°12' W 080°04'4 7.9
2017-Nov-06 22:51N 26°16' W 080°03'  
2017-Oct-31 22:21N 31°51' W 080°52'2 5.6
2017-Oct-31 22:00N 31°53' W 080°54'3 5.1
2017-Oct-31 21:30N 31°55' W 080°55'3 5.0
2017-Oct-31 20:52N 31°56' W 080°59'1 2.2
2017-Oct-31 20:26N 31°57' W 080°59'0 0.0
2017-Oct-31 19:57N 31°57' W 080°59'0 0.0
2017-Oct-31 19:27N 31°57' W 080°59'0 0.0
2017-Oct-31 18:56N 31°57' W 080°59'0 0.0
2017-Oct-31 18:26N 31°57' W 080°59'1 2.0
2017-Oct-31 17:59N 31°57' W 081°00'3 5.4
2017-Oct-31 17:30N 31°60' W 081°00'2 3.1
2017-Oct-31 17:00N 31°59' W 081°02'1 2.8
2017-Oct-31 16:30N 31°59' W 081°03'0 0.0
2017-Oct-31 16:00N 31°59' W 081°03'0 0.0
2017-Oct-31 15:30N 31°59' W 081°03'0 0.0
2017-Oct-31 15:00N 31°59' W 081°03'0 0.0
2017-Oct-30 22:09N 31°59' W 081°03'0 0.0
2017-Oct-30 21:57N 31°59' W 081°03'0 0.1
2017-Oct-30 21:30N 31°59' W 081°03'  

Dump ship's entire track history